Arctic Fury — WDE9335 — position and weather

sailwx.info

Track history (hours):
 
Tides and Currents Weather Stations Pressure Air Temp Water Temp Dewpoint Dewpoint Depression Visibility Wind Speed Wind Dir Waves Ship Positions

Arctic Fury

Owner: Fury Group Inc, Seattle, WA. More information available from US FCC via Universal Licensing System and Coast Guard Vessel Documentation Center.

Last reported at 2014-Nov-10 22:19 UTC. Time now 2014-Nov-26 08:54 UTC.
Position N 47°40' W 122°23'.
Warning: this ship's position is 15 days out of date.

Length 43 m; draft 5 m.

Type: Fishing. MMSI: 366468000.

Date/timePositionNaut miles runAvg speedWind from/ knotsBaromVisibWave heightAir tempDewpointWater temp
2014-Nov-10 22:19N 47°40' W 122°23'0 0.0
2014-Nov-10 22:17N 47°40' W 122°23'0 0.0
2014-Nov-10 21:33N 47°40' W 122°23'0 0.0
2014-Nov-10 21:32N 47°40' W 122°23'0 0.0
2014-Nov-10 20:33N 47°40' W 122°23'0 0.0
2014-Nov-10 20:32N 47°40' W 122°23'0 0.0
2014-Nov-10 19:33N 47°40' W 122°23'0 0.0
2014-Nov-10 19:32N 47°40' W 122°23'0 0.0
2014-Nov-10 18:33N 47°40' W 122°23'0 0.0
2014-Nov-10 18:32N 47°40' W 122°23'0 0.0
2014-Nov-10 17:33N 47°40' W 122°23'0 0.0
2014-Nov-10 17:32N 47°40' W 122°23'0 0.0
2014-Nov-10 16:33N 47°40' W 122°23'0 0.0
2014-Nov-10 16:32N 47°40' W 122°23'0 0.0
2014-Nov-10 15:32N 47°40' W 122°23'0 0.0
2014-Nov-10 15:31N 47°40' W 122°23'0 0.0
2014-Nov-10 14:33N 47°40' W 122°23'0 0.0
2014-Nov-10 14:26N 47°40' W 122°23'1 1.3
2014-Nov-10 13:34N 47°40' W 122°24'0 1.5
2014-Nov-10 13:31N 47°40' W 122°24'8 8.4
2014-Nov-10 12:33N 47°48' W 122°27'110.8
2014-Nov-10 12:31N 47°48' W 122°28'1111.4
2014-Nov-10 11:33N 47°58' W 122°36'2210.9
2014-Nov-10 09:32N 48°11' W 123°02'1010.9
2014-Nov-10 08:33N 48°12' W 123°18'9 9.1
2014-Nov-10 07:33N 48°12' W 123°32'12 8.3
2014-Nov-10 06:07N 48°12' W 123°49'75 4.5
2014-Nov-09 13:33N 46°60' W 124°19'  
2014-Nov-07 09:26N 46°55' W 124°14'7 8.2
2014-Nov-07 08:33N 46°48' W 124°17'9 8.8
2014-Nov-07 07:33N 46°39' W 124°19'9 9.2
2014-Nov-07 06:34N 46°30' W 124°22'9 9.1
2014-Nov-07 05:34N 46°21' W 124°24'9 9.0
2014-Nov-07 04:33N 46°12' W 124°26'9 8.9
2014-Nov-07 03:34N 46°04' W 124°28'9 8.7
2014-Nov-07 02:33N 45°55' W 124°31'9 8.7
2014-Nov-07 01:33N 45°47' W 124°33'9 8.5
2014-Nov-07 00:34N 45°38' W 124°35'9 8.6
2014-Nov-06 23:34N 45°30' W 124°37'12 0.3
2014-Nov-05 09:22N 45°18' W 124°40'7 8.8
2014-Nov-05 08:32N 45°25' W 124°40'9 8.7
2014-Nov-05 07:33N 45°33' W 124°40'8 8.5
2014-Nov-05 06:33N 45°42' W 124°40'8 8.4
2014-Nov-05 05:33N 45°50' W 124°40'8 8.2
2014-Nov-05 04:33N 45°58' W 124°40'8 8.2
2014-Nov-05 03:34N 46°06' W 124°40'8 7.7
2014-Nov-05 02:34N 46°14' W 124°39'4 4.3
2014-Nov-05 01:33N 46°18' W 124°40'8 7.7
2014-Nov-05 00:34N 46°25' W 124°35'8 8.0
2014-Nov-04 23:33N 46°33' W 124°32'3 3.4
2014-Nov-04 22:33N 46°34' W 124°36'8 8.0
2014-Nov-04 21:33N 46°39' W 124°46'4 3.6
2014-Nov-04 20:33N 46°41' W 124°50'7 6.8
2014-Nov-04 19:34N 46°48' W 124°54'11 5.6
2014-Nov-04 17:32N 46°54' W 124°40'9 9.3
2014-Nov-04 16:33N 46°55' W 124°27'9 9.2
2014-Nov-04 15:33N 46°55' W 124°13'6 0.2
2014-Nov-03 14:34N 46°50' W 124°20'10 9.5
2014-Nov-03 13:33N 46°44' W 124°30'9 9.5
2014-Nov-03 12:33N 46°38' W 124°41'2 2.1
2014-Nov-03 11:34N 46°38' W 124°44'3 3.0
2014-Nov-03 10:25N 46°38' W 124°49'2 2.9
2014-Nov-03 09:33N 46°40' W 124°50'  
Track history (hours):
 
Tides and Currents Weather Stations Pressure Air Temp Water Temp Dewpoint Dewpoint Depression Visibility Wind Speed Wind Dir Waves Ship Positions

Arctic Fury

Owner: Fury Group Inc, Seattle, WA. More information available from US FCC via Universal Licensing System and Coast Guard Vessel Documentation Center.

Last reported at 2014-Nov-10 22:19 UTC. Time now 2014-Nov-26 08:54 UTC.
Position N 47°40' W 122°23'.
Warning: this ship's position is 15 days out of date.

Length 43 m; draft 5 m.

Type: Fishing. MMSI: 366468000.

Date/timePositionNaut miles runAvg speedWind from/ knotsBaromVisibWave heightAir tempDewpointWater temp
2014-Nov-10 22:19N 47°40' W 122°23'0 0.0
2014-Nov-10 22:17N 47°40' W 122°23'0 0.0
2014-Nov-10 21:33N 47°40' W 122°23'0 0.0
2014-Nov-10 21:32N 47°40' W 122°23'0 0.0
2014-Nov-10 20:33N 47°40' W 122°23'0 0.0
2014-Nov-10 20:32N 47°40' W 122°23'0 0.0
2014-Nov-10 19:33N 47°40' W 122°23'0 0.0
2014-Nov-10 19:32N 47°40' W 122°23'0 0.0
2014-Nov-10 18:33N 47°40' W 122°23'0 0.0
2014-Nov-10 18:32N 47°40' W 122°23'0 0.0
2014-Nov-10 17:33N 47°40' W 122°23'0 0.0
2014-Nov-10 17:32N 47°40' W 122°23'0 0.0
2014-Nov-10 16:33N 47°40' W 122°23'0 0.0
2014-Nov-10 16:32N 47°40' W 122°23'0 0.0
2014-Nov-10 15:32N 47°40' W 122°23'0 0.0
2014-Nov-10 15:31N 47°40' W 122°23'0 0.0
2014-Nov-10 14:33N 47°40' W 122°23'0 0.0
2014-Nov-10 14:26N 47°40' W 122°23'1 1.3
2014-Nov-10 13:34N 47°40' W 122°24'0 1.5
2014-Nov-10 13:31N 47°40' W 122°24'8 8.4
2014-Nov-10 12:33N 47°48' W 122°27'110.8
2014-Nov-10 12:31N 47°48' W 122°28'1111.4
2014-Nov-10 11:33N 47°58' W 122°36'2210.9
2014-Nov-10 09:32N 48°11' W 123°02'1010.9
2014-Nov-10 08:33N 48°12' W 123°18'9 9.1
2014-Nov-10 07:33N 48°12' W 123°32'12 8.3
2014-Nov-10 06:07N 48°12' W 123°49'75 4.5
2014-Nov-09 13:33N 46°60' W 124°19'  
2014-Nov-07 09:26N 46°55' W 124°14'7 8.2
2014-Nov-07 08:33N 46°48' W 124°17'9 8.8
2014-Nov-07 07:33N 46°39' W 124°19'9 9.2
2014-Nov-07 06:34N 46°30' W 124°22'9 9.1
2014-Nov-07 05:34N 46°21' W 124°24'9 9.0
2014-Nov-07 04:33N 46°12' W 124°26'9 8.9
2014-Nov-07 03:34N 46°04' W 124°28'9 8.7
2014-Nov-07 02:33N 45°55' W 124°31'9 8.7
2014-Nov-07 01:33N 45°47' W 124°33'9 8.5
2014-Nov-07 00:34N 45°38' W 124°35'9 8.6
2014-Nov-06 23:34N 45°30' W 124°37'12 0.3
2014-Nov-05 09:22N 45°18' W 124°40'7 8.8
2014-Nov-05 08:32N 45°25' W 124°40'9 8.7
2014-Nov-05 07:33N 45°33' W 124°40'8 8.5
2014-Nov-05 06:33N 45°42' W 124°40'8 8.4
2014-Nov-05 05:33N 45°50' W 124°40'8 8.2
2014-Nov-05 04:33N 45°58' W 124°40'8 8.2
2014-Nov-05 03:34N 46°06' W 124°40'8 7.7
2014-Nov-05 02:34N 46°14' W 124°39'4 4.3
2014-Nov-05 01:33N 46°18' W 124°40'8 7.7
2014-Nov-05 00:34N 46°25' W 124°35'8 8.0
2014-Nov-04 23:33N 46°33' W 124°32'3 3.4
2014-Nov-04 22:33N 46°34' W 124°36'8 8.0
2014-Nov-04 21:33N 46°39' W 124°46'4 3.6
2014-Nov-04 20:33N 46°41' W 124°50'7 6.8
2014-Nov-04 19:34N 46°48' W 124°54'11 5.6
2014-Nov-04 17:32N 46°54' W 124°40'9 9.3
2014-Nov-04 16:33N 46°55' W 124°27'9 9.2
2014-Nov-04 15:33N 46°55' W 124°13'6 0.2
2014-Nov-03 14:34N 46°50' W 124°20'10 9.5
2014-Nov-03 13:33N 46°44' W 124°30'9 9.5
2014-Nov-03 12:33N 46°38' W 124°41'2 2.1
2014-Nov-03 11:34N 46°38' W 124°44'3 3.0
2014-Nov-03 10:25N 46°38' W 124°49'2 2.9
2014-Nov-03 09:33N 46°40' W 124°50'  

Dump ship's entire track history